Center City, MN (55012)

5:24 AM CDT on July 23, 2016 (GMT -0500)
Amador Township | | Change Station
Active Advisory: Flash Flood Watch

Elev 880 ft 45.55 °N, 92.80 °W | Updated 53 seconds ago

Clear
Clear
66.6 °F
Feels Like 66.6 °F
N
0.0
Wind Variable Wind from NE
Gusts 0.0 mph

Today
High -- | Low -- °F
--% Chance of Precip.
Yesterday
High -- | Low -- °F
Precip. -- in
Pressure 30.01 in
Visibility 10.0 miles
Clouds Clear
Dew Point 65 °F
Humidity 96%
Rainfall 0.00 in
Snow Depth Not available.
5:46 AM 8:48 PM
Waning Gibbous, 86% visible
METAR KOEO 231015Z AUTO 00000KT 10SM CLR 19/19 A3001 RMK AO2 T01900190
Pressure 30.01 in
Visibility 10.0 miles
Clouds Clear
Dew Point 65 °F
Humidity 96%
Rainfall 0.00 in
Snow Depth Not available.
5:46 AM 8:48 PM
Waning Gibbous, 86% visible
METAR KOEO 231015Z AUTO 00000KT 10SM CLR 19/19 A3001 RMK AO2 T01900190

10-Day Weather Forecast

Almanac

Astronomy

Jul. 23, 2016 Rise Set
Actual Time
Civil Twilight
Nautical Twilight
Astronomical Twilight
Moon
Length of Visible Light
Length of Day
Tomorrow will be .
, % of the Moon is Illuminated

Today's Extremes

State Highs State Lows

Community

WunderPhotos

Upload Photos

1,926,791 photos uploaded!

WunderBlog® & News

Nearby

Air Quality

  Air Quality AQ Index Pollutant
Not available.

Snow Depth

Station Depth Elevation

Earthquake Activity

City Distance Mag. Time & Date
Minimum magnitude displayed is 2.5.

Coastal Water Temperatures

Place Temperature

Stations

Nearby Weather Stations

Station Location Temp. Windchill Dew Point Humidity Wind Precip. Elev Updated Type
                   

Watches & Warnings

Flash Flood Watch
Issued: 5:13 AM CDT Jul. 23, 2016 – National Weather Service

... Flash Flood Watch remains in effect from noon CDT today
through Sunday morning...

The Flash Flood Watch continues for

* portions of Minnesota and northwest Wisconsin... including the
following areas... in Minnesota... Benton... Chisago... Isanti...
Kanabec... Mille Lacs and Morrison counties. In northwest
Wisconsin... Barron... Polk and Rusk counties.

* From noon CDT today through Sunday morning

* recent heavy rainfall... combined with the potential of high
rainfall rates expected during this upcoming event... will lead
to an increase the flooding threat in the watch area.

Precautionary/preparedness actions...

A Flash Flood Watch means that conditions may develop that lead
to flash flooding. Flash flooding is a very dangerous situation.

You should monitor later forecasts and be prepared to take action
should flash flood warnings be issued.